• Join FlightAware (Why Join?)
  • Login
  • US Flag 
09:52PM EST


 

Airport Tracker/Info


-or-


 

Live Flight TrackerFlight Track Log ✈ EJA929 ✈ 19-Nov-2013 ✈ KMCO - KCMH

Flight Track Log - Related Links

Times and Time Zones

All times are in EST time to prevent confusion due to time zone crossing. See the EJA929 flight status page for this flight to view local times or setup timezone preferences in your user account.

Time Position Orientation Groundspeed Altitude Reporting Facility
EST Latitude Longitude Course Direction KTS MPH feet Rate Location/Type
10:30PM 28.4167 -81.3333 180° South 165 190 1,000  Level Orlando TRACON
10:30PM 28.3833 -81.3333 180° South 222 255 3,800 3,720 Climbing Orlando TRACON
10:31PM 28.3333 -81.3667 210° Southwest 278 320 7,400 3,900 Climbing Orlando TRACON
10:32PM 28.3667 -81.4167 307° West 294 338 11,300 3,180 Climbing Orlando TRACON
10:35PM 28.5742 -81.4742 346° North 332 382 18,000 2,460 Climbing Jacksonville Center
10:36PM 28.6725 -81.4942 350° North 338 389 19,700 1,800 Climbing Jacksonville Center
10:37PM 28.7747 -81.5092 353° North 358 412 21,700 1,980 Climbing Jacksonville Center
10:38PM 28.8772 -81.5292 350° North 370 426 23,700 1,980 Climbing Jacksonville Center
10:39PM 28.9858 -81.5394 355° North 376 433 25,700 1,800 Climbing Jacksonville Center
10:40PM 29.0989 -81.5522 354° North 384 442 27,400 1,800 Climbing Jacksonville Center
10:41PM 29.2200 -81.5697 353° North 399 459 29,400 1,980 Climbing Jacksonville Center
10:42PM 29.3369 -81.5825 355° North 410 472 31,400 1,860 Climbing Jacksonville Center
10:43PM 29.4542 -81.6000 353° North 416 479 33,200 1,740 Climbing Jacksonville Center
10:44PM 29.5733 -81.6150 354° North 421 484 34,900 1,800 Climbing Jacksonville Center
10:45PM 29.6925 -81.6303 354° North 428 493 36,900 1,500 Climbing Jacksonville Center
10:46PM 29.8178 -81.6453 354° North 428 493 37,900 1,380 Climbing Jacksonville Center
10:47PM 29.9433 -81.6606 354° North 438 504 39,700 1,500 Climbing Jacksonville Center
10:48PM 30.0686 -81.6758 354° North 444 511 40,900 600 Climbing Jacksonville Center
10:49PM 30.1942 -81.6911 354° North 444 511 41,000  Climbing Jacksonville Center
10:50PM 30.3236 -81.7061 354° North 449 517 41,000 -60 Level Jacksonville Center
10:51PM 30.4575 -81.7214 354° North 462 532 40,900  Descending Jacksonville Center
10:52PM 30.5828 -81.7417 352° North 484 557 41,000  Climbing Jacksonville Center
10:53PM 30.7186 -81.7592 354° North 484 557 41,000  Level Jacksonville Center
10:54PM 30.8506 -81.7794 352° North 484 557 41,000  Level Jacksonville Center
10:55PM 30.9864 -81.7972 354° North 484 557 41,000  Level Jacksonville Center
10:56PM 31.1200 -81.8175 353° North 484 557 41,000  Level Jacksonville Center
10:57PM 31.2558 -81.8331 354° North 484 557 41,000  Level Jacksonville Center
10:58PM 31.3878 -81.8508 353° North 478 550 41,000  Level Jacksonville Center
10:59PM 31.5361 -81.8711 353° North 478 550 41,000  Level Jacksonville Center
11:00PM 31.6678 -81.8869 354° North 478 550 41,000  Level Jacksonville Center
11:01PM 31.7869 -81.9028 354° North 485 558 41,000  Level Jacksonville Center
11:03PM 32.0814 -81.9406 354° North 503 579 41,000  Level Atlanta Center
11:04PM 32.2153 -81.9594 353° North 497 572 41,000  Level Atlanta Center
11:05PM 32.3431 -81.9761 354° North 481 554 41,000  Level Atlanta Center
11:06PM 32.4769 -81.9928 354° North 481 554 41,000  Level Atlanta Center
11:07PM 32.6086 -82.0094 354° North 481 554 41,000  Level Atlanta Center
11:08PM 32.7278 -82.0289 352° North 481 554 41,000  Level Atlanta Center
11:09PM 32.8597 -82.0433 355° North 481 554 41,000  Level Atlanta Center
11:10PM 32.9936 -82.0625 353° North 481 554 41,000  Level Atlanta Center
11:11PM 33.1275 -82.0817 353° North 481 554 41,000  Level Atlanta Center
11:12PM 33.2592 -82.1011 353° North 481 554 41,000  Level Atlanta Center
11:13PM 33.3950 -82.1031 359° North 488 562 41,000  Level Atlanta Center
11:14PM 33.5347 -82.0925 North 488 562 41,000  Level Atlanta Center
11:15PM 33.6764 -82.0842 North 495 570 41,000  Level Atlanta Center
11:16PM 33.8161 -82.0761 North 495 570 41,000  Level Atlanta Center
11:17PM 33.9683 -82.0650 North 495 570 41,000  Level Atlanta Center
11:18PM 34.1039 -82.0569 North 490 564 41,000  Level Atlanta Center
11:19PM 34.2436 -82.0486 North 490 564 41,000  Level Atlanta Center
11:20PM 34.3811 -82.0403 North 490 564 41,000  Level Atlanta Center
11:21PM 34.5186 -82.0319 North 490 564 41,000  Level Atlanta Center
11:22PM 34.6564 -82.0236 North 495 570 41,000  Level Atlanta Center
11:23PM 34.7919 -82.0128 North 495 570 41,000  Level Atlanta Center
11:24PM 34.9294 -82.0069 North 495 570 41,000  Level Atlanta Center
11:25PM 35.0650 -81.9986 North 495 570 41,000  Level Atlanta Center
11:26PM 35.2025 -81.9900 North 495 570 41,000  Level Atlanta Center
11:27PM 35.3400 -81.9789 North 495 570 41,000  Level Atlanta Center
11:28PM 35.4650 -81.9708 North 495 570 41,000  Level Atlanta Center
11:29PM 35.6025 -81.9597 North 502 578 41,000  Level Atlanta Center
11:30PM 35.7358 -81.9511 North 477 549 41,000  Level Atlanta Center
11:31PM 35.8694 -81.9453 North 477 549 41,000  Level Atlanta Center
11:32PM 36.0028 -81.9339 North 477 549 41,000  Level Atlanta Center
11:33PM 36.1361 -81.9228 North 477 549 41,000  Level Atlanta Center
11:35PM 36.4069 -81.9064 North 481 554 41,000  Level Indianapolis Center
11:36PM 36.5425 -81.8964 North 488 562 41,000  Level Indianapolis Center
11:37PM 36.6769 -81.8897 North 485 558 41,000  Level Indianapolis Center
11:38PM 36.8019 -81.9219 348° North 462 532 41,000  Level Indianapolis Center
11:39PM 36.9278 -81.9581 347° North 463 533 41,000  Level Indianapolis Center
11:40PM 37.0514 -81.9950 347° North 459 528 41,000  Level Indianapolis Center
11:41PM 37.1761 -82.0308 347° North 460 529 41,000  Level Indianapolis Center
11:42PM 37.3219 -82.0742 347° North 462 532 41,000  Level Indianapolis Center
11:43PM 37.4467 -82.1114 347° North 461 531 41,000  Level Indianapolis Center
11:44PM 37.5717 -82.1478 347° North 462 532 41,000  Level Indianapolis Center
11:45PM 37.6975 -82.1858 347° North 463 533 41,000  Level Indianapolis Center
11:46PM 37.8222 -82.2231 347° North 461 531 41,000  Level Indianapolis Center
11:47PM 37.9453 -82.2586 347° North 456 525 41,000 -240 Level Indianapolis Center
11:48PM 38.0711 -82.2958 347° North 461 531 40,600 -1,680 Descending Indianapolis Center
11:49PM 38.2053 -82.3369 346° North 456 525 37,600 -2,640 Descending Indianapolis Center
11:50PM 38.3244 -82.3744 346° North 443 510 35,300 -2,340 Descending Indianapolis Center
11:51PM 38.4458 -82.4100 347° North 445 512 32,900 -2,400 Descending Indianapolis Center
11:52PM 38.5678 -82.4486 346° North 446 513 30,500 -2,400 Descending Indianapolis Center
11:53PM 38.6883 -82.4839 347° North 441 507 28,100 -2,400 Descending Indianapolis Center
11:54PM 38.8075 -82.5214 346° North 438 504 25,700 -2,400 Descending Indianapolis Center
11:55PM 38.9269 -82.5586 346° North 438 504 23,300 -2,400 Descending Indianapolis Center
11:56PM 39.0422 -82.5939 347° North 425 489 20,900 -2,340 Descending Indianapolis Center
11:57PM 39.1489 -82.6264 347° North 399 459 18,600 -2,160 Descending Indianapolis Center
11:58PM 39.2458 -82.6553 347° North 393 452 16,600 -2,100 Descending Indianapolis Center
11:59PM 39.3500 -82.6886 346° North 388 447 14,400 -2,400 Descending Indianapolis Center
11:59PM 39.4017 -82.7064 345° North 370 426 13,300 -1,980 Descending Indianapolis Center
12:00AM 39.4467 -82.7192 348° North 362 417 12,400 -1,980 Descending Indianapolis Center
12:00AM 39.4669 -82.7275 342° North 350 403 11,900 -1,500 Descending Indianapolis Center
12:01AM 39.5400 -82.7481 348° North 349 402 10,900 -1,320 Descending Indianapolis Center
12:01AM 39.5758 -82.7525 355° North 343 395 10,500 -900 Descending Indianapolis Center
12:02AM 39.6511 -82.7547 359° North 334 384 10,000 -540 Descending Indianapolis Center
12:02AM 39.6658 -82.7558 357° North 325 374 10,000 -720 Level Indianapolis Center
12:03AM 39.7308 -82.7569 359° North 295 339 9,300 -900 Descending Indianapolis Center
12:03AM 39.7431 -82.7597 350° North 264 304 9,100 -1,620 Descending Indianapolis Center
12:04AM 39.8019 -82.7592 360° North 262 302 7,700 -1,680 Descending Indianapolis Center
12:04AM 39.8142 -82.7628 347° North 250 288 7,400 -1,380 Descending Indianapolis Center
12:05AM 39.8725 -82.7633 360° North 257 296 6,300 -1,320 Descending Indianapolis Center
12:05AM 39.8792 -82.7650 349° North 253 291 6,200 -1,980 Descending Indianapolis Center
12:06AM 39.9383 -82.7658 359° North 246 283 4,300 -2,220 Descending Indianapolis Center
12:06AM 39.9544 -82.7686 352° North 205 236 3,600 -1,500 Descending Indianapolis Center
12:07AM 39.9861 -82.7794 345° North 217 250 2,800 -1,140 Descending Indianapolis Center
12:07AM 39.9944 -82.7914 312° West 158 182 2,600 -1,020 Descending Indianapolis Center
12:08AM 39.9994 -82.8250 281° West 166 191 1,800 -1,020 Descending Indianapolis Center
12:08AM 39.9986 -82.8356 264° West 107 123 1,600 -540 Descending Indianapolis Center
12:09AM 40.0014 -82.8706 276° West 138 159 1,300 -360 Descending Indianapolis Center
12:11AM 39.9833 -82.8833 270° West  Level FlightAware Approximate